createdAt,value
2022-08-02T00:03:58.807Z,100541.13
2022-08-02T00:08:59.075Z,100549.41
2022-08-02T00:13:58.136Z,100557.31
2022-08-02T00:18:56.936Z,100546.91
2022-08-02T00:24:28.210Z,100547.78
2022-08-02T00:29:16.245Z,100549.81
2022-08-02T00:34:28.674Z,100554.06
2022-08-02T00:39:34.355Z,100548.34
2022-08-02T00:44:36.139Z,100551.19
2022-08-02T00:49:34.932Z,100542.09
2022-08-02T00:54:33.962Z,100540.47
2022-08-02T00:59:32.696Z,100549.91
2022-08-02T01:04:32.859Z,100549.25
2022-08-02T01:09:31.791Z,100540.56
2022-08-02T01:14:31.096Z,100548.13
2022-08-02T01:19:40.489Z,100544.78
2022-08-02T01:24:56.994Z,100556.03
2022-08-02T01:30:01.839Z,100564.94
2022-08-02T01:35:04.178Z,100563.41
2022-08-02T01:40:10.650Z,100569.47
2022-08-02T01:45:13.720Z,100581.56
2022-08-02T01:50:15.341Z,100574.81
2022-08-02T01:55:18.904Z,100578.00
2022-08-02T02:00:20.909Z,100577.34
2022-08-02T02:05:21.951Z,100586.59
2022-08-02T02:10:26.123Z,100587.25
2022-08-02T02:15:27.597Z,100582.19
2022-08-02T02:20:28.253Z,100579.34
2022-08-02T02:25:36.427Z,100588.41
2022-08-02T02:30:50.488Z,100592.78
2022-08-02T02:35:51.809Z,100592.81
2022-08-02T02:40:51.372Z,100593.13
2022-08-02T02:45:52.645Z,100584.41
2022-08-02T02:50:52.739Z,100585.72
2022-08-02T02:56:02.626Z,100585.91
2022-08-02T03:01:20.901Z,100599.00
2022-08-02T03:06:40.568Z,100606.06
2022-08-02T03:11:40.698Z,100604.56
2022-08-02T03:16:48.643Z,100602.19
2022-08-02T03:21:57.427Z,100602.53
2022-08-02T03:26:56.600Z,100602.19
2022-08-02T03:31:57.764Z,100603.03
2022-08-02T03:36:58.255Z,100613.47
2022-08-02T03:41:57.442Z,100618.13
2022-08-02T03:46:58.851Z,100629.91
2022-08-02T03:51:57.944Z,100626.41
2022-08-02T03:56:57.118Z,100631.94
2022-08-02T04:01:57.343Z,100635.31
2022-08-02T04:06:56.114Z,100632.28
2022-08-02T04:11:56.552Z,100638.50
2022-08-02T04:17:01.093Z,100652.31
2022-08-02T04:22:04.913Z,100651.25
2022-08-02T04:27:19.476Z,100659.63
2022-08-02T04:32:25.714Z,100661.53
2022-08-02T04:37:24.749Z,100654.13
2022-08-02T04:42:28.350Z,100657.84
2022-08-02T04:47:54.485Z,100654.66
2022-08-02T04:52:47.356Z,100659.03
2022-08-02T04:57:58.856Z,100656.81
2022-08-02T05:03:00.314Z,100666.91
2022-08-02T05:07:59.775Z,100662.88
2022-08-02T05:12:58.796Z,100668.56
2022-08-02T05:17:59.202Z,100665.38
2022-08-02T05:22:57.963Z,100671.25
2022-08-02T05:27:56.746Z,100671.09
2022-08-02T05:32:55.566Z,100678.66
2022-08-02T05:37:55.650Z,100679.13
2022-08-02T05:42:54.520Z,100682.63
2022-08-02T05:47:53.432Z,100686.78
2022-08-02T05:52:58.234Z,100683.22
2022-08-02T05:58:07.235Z,100687.56
2022-08-02T06:03:17.898Z,100695.03
2022-08-02T06:08:16.846Z,100698.75
2022-08-02T06:13:17.604Z,100700.31
2022-08-02T06:18:17.679Z,100694.84
2022-08-02T06:23:17.925Z,100709.19
2022-08-02T06:28:20.096Z,100695.84
2022-08-02T06:33:18.799Z,100701.13
2022-08-02T06:38:23.209Z,100700.16
2022-08-02T06:43:30.339Z,100708.69
2022-08-02T06:48:29.472Z,100706.50
2022-08-02T06:53:28.281Z,100720.16
2022-08-02T06:58:28.431Z,100717.88
2022-08-02T07:03:27.268Z,100726.50
2022-08-02T07:08:26.401Z,100715.97
2022-08-02T07:13:26.082Z,100718.78
2022-08-02T07:18:26.476Z,100714.50
2022-08-02T07:23:25.305Z,100707.75
2022-08-02T07:28:24.874Z,100705.75
2022-08-02T07:33:38.406Z,100714.81
2022-08-02T07:38:37.990Z,100706.72
2022-08-02T07:43:36.838Z,100703.78
2022-08-02T07:48:36.908Z,100708.69
2022-08-02T07:53:50.602Z,100707.06
2022-08-02T07:58:50.656Z,100705.31
2022-08-02T08:03:51.040Z,100705.22
2022-08-02T08:08:50.317Z,100711.59
2022-08-02T08:13:49.216Z,100714.56
2022-08-02T08:18:48.116Z,100714.22
2022-08-02T08:23:48.265Z,100710.19
2022-08-02T08:28:47.043Z,100704.00
2022-08-02T08:33:45.823Z,100696.09
2022-08-02T08:38:44.574Z,100693.94
2022-08-02T08:43:44.710Z,100689.81
2022-08-02T08:48:48.082Z,100689.78
2022-08-02T08:53:49.983Z,100686.06
2022-08-02T08:58:50.290Z,100683.38
2022-08-02T09:03:49.080Z,100676.53
2022-08-02T09:08:48.180Z,100683.94
2022-08-02T09:13:54.133Z,100672.97
2022-08-02T09:18:53.250Z,100675.75
2022-08-02T09:23:53.412Z,100665.81
2022-08-02T09:29:00.949Z,100657.88
2022-08-02T09:34:01.447Z,100660.63
2022-08-02T09:39:02.606Z,100660.09
2022-08-02T09:44:06.624Z,100656.84
2022-08-02T09:49:08.370Z,100650.44
2022-08-02T09:54:09.968Z,100644.56
2022-08-02T09:59:11.313Z,100638.19
2022-08-02T10:04:19.919Z,100645.25
2022-08-02T10:09:21.398Z,100636.38
2022-08-02T10:14:23.630Z,100631.66
2022-08-02T10:20:00.741Z,100632.50
2022-08-02T10:24:47.771Z,100622.22
2022-08-02T10:29:55.162Z,100622.97
2022-08-02T10:34:56.677Z,100618.84
2022-08-02T10:39:58.685Z,100625.91
2022-08-02T10:45:10.899Z,100616.75
2022-08-02T10:50:10.399Z,100608.69
2022-08-02T10:55:14.673Z,100588.31
2022-08-02T11:00:29.286Z,100600.06
2022-08-02T11:05:42.769Z,100597.00
2022-08-02T11:10:42.768Z,100598.94
2022-08-02T11:15:55.382Z,100594.28
2022-08-02T11:21:23.458Z,100597.81
2022-08-02T11:26:45.557Z,100594.69
2022-08-02T11:31:47.393Z,100596.22
2022-08-02T11:36:50.880Z,100595.53
2022-08-02T11:41:54.310Z,100598.25
2022-08-02T11:46:58.747Z,100590.25
2022-08-02T11:52:01.937Z,100595.13
2022-08-02T11:57:20.859Z,100597.25
2022-08-02T12:02:22.897Z,100592.38
2022-08-02T12:07:30.402Z,100584.09
2022-08-02T12:12:34.759Z,100581.19
2022-08-02T12:17:52.353Z,100583.47
2022-08-02T12:22:52.063Z,100597.53
2022-08-02T12:27:53.525Z,100602.81
2022-08-02T12:33:13.258Z,100601.16
2022-08-02T12:38:12.903Z,100590.84
2022-08-02T12:43:20.109Z,100594.56
2022-08-02T12:48:37.136Z,100592.56
2022-08-02T12:53:36.860Z,100583.13
2022-08-02T12:58:49.798Z,100579.50
2022-08-02T13:04:11.414Z,100582.28
2022-08-02T13:09:17.700Z,100584.88
2022-08-02T13:14:17.582Z,100581.22
2022-08-02T13:19:17.808Z,100588.34
2022-08-02T13:55:57.975Z,100587.91
2022-08-02T14:00:57.926Z,100590.66
2022-08-02T14:06:11.196Z,100588.97
2022-08-02T14:11:15.110Z,100583.94
2022-08-02T14:16:33.057Z,100590.03
2022-08-02T14:21:46.536Z,100600.31
2022-08-02T14:26:49.996Z,100589.16
2022-08-02T14:32:04.511Z,100595.94
2022-08-02T14:37:05.255Z,100585.00
2022-08-02T14:42:08.427Z,100584.13
2022-08-02T14:47:11.559Z,100578.75
2022-08-02T14:52:13.590Z,100579.03
2022-08-02T14:57:14.554Z,100576.22
2022-08-02T15:02:14.677Z,100574.13
2022-08-02T15:07:15.706Z,100579.91
2022-08-02T15:12:18.092Z,100570.63
2022-08-02T15:17:17.749Z,100570.03
2022-08-02T15:22:20.011Z,100566.97
2022-08-02T15:27:21.276Z,100567.81
2022-08-02T15:32:20.787Z,100565.38
2022-08-02T15:37:19.953Z,100569.69
2022-08-02T15:42:21.087Z,100566.53
2022-08-02T15:47:29.988Z,100565.28
2022-08-02T15:52:29.198Z,100561.94
2022-08-02T15:57:33.121Z,100567.03
2022-08-02T16:02:35.553Z,100564.50
2022-08-02T16:07:39.527Z,100565.38
2022-08-02T16:12:41.521Z,100572.78
2022-08-02T16:17:52.083Z,100573.06
2022-08-02T16:22:54.070Z,100585.06
2022-08-02T16:27:59.365Z,100590.41
2022-08-02T16:33:08.296Z,100598.25
2022-08-02T16:38:08.191Z,100593.63
2022-08-02T16:43:11.597Z,100603.53
2022-08-02T16:48:25.673Z,100606.88
2022-08-02T16:53:36.801Z,100604.84
2022-08-02T16:58:38.378Z,100606.59
2022-08-02T17:03:55.976Z,100606.66
2022-08-02T17:08:57.238Z,100610.72
2022-08-02T17:14:05.595Z,100620.09
2022-08-02T17:19:08.821Z,100625.25
2022-08-02T17:24:08.857Z,100628.72
2022-08-02T17:29:19.925Z,100632.28
2022-08-02T17:34:19.924Z,100635.44
2022-08-02T17:39:33.522Z,100634.78
2022-08-02T17:44:38.396Z,100638.50
2022-08-02T17:49:47.923Z,100646.34
2022-08-02T17:54:54.003Z,100659.03
2022-08-02T18:00:04.215Z,100653.31
2022-08-02T18:05:05.251Z,100657.69
2022-08-02T18:10:15.486Z,100668.19
2022-08-02T18:15:17.276Z,100667.69
2022-08-02T18:20:20.866Z,100676.19
2022-08-02T18:25:37.176Z,100685.91
2022-08-02T18:30:41.838Z,100692.50
2022-08-02T18:35:40.979Z,100696.09
2022-08-02T18:40:40.786Z,100696.81
2022-08-02T18:46:05.262Z,100699.38
2022-08-02T18:51:03.350Z,100709.28
2022-08-02T18:56:04.240Z,100714.53
2022-08-02T19:01:15.097Z,100729.00
2022-08-02T19:06:28.828Z,100721.94
2022-08-02T19:11:34.817Z,100726.34
2022-08-02T19:16:41.489Z,100731.41
2022-08-02T19:22:17.911Z,100735.97
2022-08-02T19:27:04.754Z,100728.03
2022-08-02T19:32:42.348Z,100746.22
2022-08-02T19:37:38.457Z,100737.47
2022-08-02T19:44:20.421Z,100739.34
2022-08-02T19:48:23.581Z,100748.72
2022-08-02T19:53:23.885Z,100742.66
2022-08-02T19:58:28.830Z,100748.47
2022-08-02T20:03:52.025Z,100752.41
2022-08-02T20:08:53.403Z,100752.75
2022-08-02T20:13:56.857Z,100755.59
2022-08-02T20:18:57.254Z,100761.78
2022-08-02T20:23:56.633Z,100757.59
2022-08-02T20:28:56.664Z,100760.19
2022-08-02T20:34:02.975Z,100768.38
2022-08-02T20:39:02.012Z,100776.03
2022-08-02T20:44:01.188Z,100765.91
2022-08-02T20:49:05.528Z,100771.72
2022-08-02T20:54:08.299Z,100770.81
2022-08-02T20:59:15.913Z,100781.38
2022-08-02T21:04:16.591Z,100778.03
2022-08-02T21:09:19.720Z,100791.78
2022-08-02T21:14:38.638Z,100798.88
2022-08-02T21:19:37.569Z,100803.09
2022-08-02T21:24:44.823Z,100807.41
2022-08-02T21:29:46.289Z,100809.75
2022-08-02T21:34:45.625Z,100813.63
2022-08-02T21:39:49.984Z,100821.09
2022-08-02T21:44:51.633Z,100815.50
2022-08-02T21:50:13.645Z,100816.91
2022-08-02T21:55:14.891Z,100821.72
2022-08-02T22:00:18.113Z,100821.91
2022-08-02T22:05:29.080Z,100826.75
2022-08-02T22:38:16.580Z,100829.38
2022-08-02T22:42:33.673Z,100820.66
2022-08-02T22:47:51.121Z,100818.03
2022-08-02T22:54:11.891Z,100825.09
2022-08-02T23:05:53.383Z,100824.53
2022-08-02T23:11:20.291Z,100829.13
2022-08-02T23:16:40.432Z,100835.25
2022-08-02T23:22:02.313Z,100828.59
2022-08-02T23:27:03.264Z,100830.13
